createdAt,value
2018-10-17T00:45:59.930Z,57.50
2018-10-17T00:51:03.253Z,57.64
2018-10-17T00:56:06.581Z,58.06
2018-10-17T02:33:12.159Z,62.64
2018-10-17T02:38:15.482Z,62.42
2018-10-17T02:43:18.879Z,62.30
2018-10-17T03:45:54.587Z,63.33
2018-10-17T03:50:57.917Z,63.04
2018-10-17T03:56:02.012Z,62.93
2018-10-17T04:35:36.528Z,61.96
2018-10-17T04:40:39.854Z,61.81
2018-10-17T04:45:43.187Z,61.99
2018-10-17T04:50:47.284Z,62.04
2018-10-17T04:55:50.626Z,61.94
2018-10-17T05:00:53.994Z,61.89
2018-10-17T05:05:57.302Z,62.01
2018-10-17T05:11:00.644Z,62.05
2018-10-17T05:16:03.972Z,62.07
2018-10-17T05:21:08.064Z,62.00
2018-10-17T05:26:11.391Z,62.05
2018-10-17T05:31:14.870Z,62.00
2018-10-17T05:36:24.051Z,62.63
2018-10-17T05:41:27.374Z,62.68
2018-10-17T05:46:30.690Z,63.24
2018-10-17T05:51:34.019Z,64.04
2018-10-17T05:56:37.352Z,65.09
2018-10-17T06:01:40.719Z,65.30
2018-10-17T06:06:44.037Z,65.17
2018-10-17T06:11:47.377Z,65.48
2018-10-17T06:16:51.495Z,64.83
2018-10-17T06:21:54.833Z,64.58
2018-10-17T06:26:58.158Z,64.41
2018-10-17T07:00:55.737Z,61.77
2018-10-17T07:05:59.115Z,63.40
2018-10-17T07:11:02.811Z,62.86
2018-10-17T08:02:07.283Z,61.47
2018-10-17T08:07:10.618Z,61.10
2018-10-17T08:12:14.060Z,60.97
2018-10-17T09:03:18.029Z,57.52
2018-10-17T09:08:21.401Z,57.67
2018-10-17T09:13:24.725Z,57.61
2018-10-17T10:04:30.456Z,55.12
2018-10-17T10:09:33.792Z,55.38
2018-10-17T10:14:37.126Z,54.39
2018-10-17T11:05:42.163Z,52.17
2018-10-17T11:10:45.401Z,52.08
2018-10-17T12:01:50.387Z,46.55
2018-10-17T12:06:53.715Z,44.81
2018-10-17T12:11:57.128Z,44.13
2018-10-17T13:03:02.367Z,39.80
2018-10-17T13:08:06.499Z,38.23
2018-10-17T13:13:09.856Z,37.16
2018-10-17T14:04:14.163Z,29.15
2018-10-17T14:09:17.597Z,28.50
2018-10-17T14:14:21.610Z,28.34
2018-10-17T14:48:11.040Z,27.12
2018-10-17T14:53:14.532Z,27.24
2018-10-17T14:58:20.544Z,27.10
2018-10-17T15:32:09.242Z,27.50
2018-10-17T15:37:12.573Z,27.86
2018-10-17T15:42:15.917Z,28.77
2018-10-17T15:47:19.247Z,29.10
2018-10-17T15:52:22.583Z,29.94
2018-10-17T15:57:25.910Z,31.10
2018-10-17T16:02:29.278Z,32.20
2018-10-17T16:07:33.352Z,33.58
2018-10-17T16:12:36.694Z,34.63
2018-10-17T16:17:42.726Z,35.31
2018-10-17T16:22:46.157Z,36.83
2018-10-17T16:28:09.379Z,37.55
2018-10-17T16:33:12.997Z,38.70
2018-10-17T16:38:20.542Z,38.72
2018-10-17T16:43:23.879Z,39.78
2018-10-17T16:48:27.210Z,38.76
2018-10-17T16:53:30.541Z,39.37
2018-10-17T16:58:33.969Z,39.52
2018-10-17T17:03:37.242Z,40.52
2018-10-17T17:08:40.579Z,40.03
2018-10-17T17:13:44.695Z,40.28
2018-10-17T17:18:48.024Z,40.60
2018-10-17T17:23:52.177Z,40.62
2018-10-17T17:28:55.483Z,40.75
2018-10-17T17:33:58.817Z,41.67
2018-10-17T17:39:02.150Z,41.26
2018-10-17T17:44:05.483Z,41.93
2018-10-17T17:49:08.815Z,41.95
2018-10-17T17:54:12.931Z,42.39
2018-10-17T17:59:17.019Z,42.45
2018-10-17T18:04:21.980Z,42.96
2018-10-17T18:09:25.327Z,43.37
2018-10-17T18:14:29.445Z,43.32
2018-10-17T18:19:32.788Z,43.40
2018-10-17T18:24:36.135Z,43.89
2018-10-17T18:29:39.472Z,44.28
2018-10-17T18:34:42.816Z,44.62
2018-10-17T18:39:46.167Z,45.09
2018-10-17T18:44:49.557Z,45.83
2018-10-17T18:49:52.902Z,46.11
2018-10-17T18:54:56.248Z,46.50
2018-10-17T18:59:59.632Z,46.54
2018-10-17T19:05:02.973Z,47.60
2018-10-17T19:10:06.316Z,47.84
2018-10-17T19:15:09.684Z,47.72
2018-10-17T19:20:13.016Z,48.25
2018-10-17T19:25:16.389Z,48.57
2018-10-17T19:30:20.455Z,48.49
2018-10-17T19:35:23.794Z,48.65
2018-10-17T19:40:27.123Z,48.75
2018-10-17T19:45:30.480Z,49.10
2018-10-17T19:50:33.822Z,49.32
2018-10-17T19:55:37.924Z,49.91
2018-10-17T20:00:41.267Z,50.37
2018-10-17T20:05:45.372Z,50.48
2018-10-17T20:10:48.706Z,50.54
2018-10-17T20:15:52.801Z,51.06
2018-10-17T20:20:56.150Z,51.14
2018-10-17T20:26:00.315Z,52.00
2018-10-17T20:31:03.658Z,52.27
2018-10-17T20:36:06.989Z,53.03
2018-10-17T20:41:10.331Z,52.29
2018-10-17T20:46:14.426Z,52.50
2018-10-17T20:51:17.781Z,52.83
2018-10-17T20:56:21.947Z,53.06
2018-10-17T21:01:25.990Z,53.02
2018-10-17T21:06:29.327Z,53.27
2018-10-17T21:11:34.358Z,53.24
2018-10-17T21:16:37.543Z,53.48
2018-10-17T21:21:40.880Z,53.64
2018-10-17T21:26:44.240Z,53.72
2018-10-17T21:31:48.327Z,54.31
2018-10-17T21:36:51.670Z,54.85
2018-10-17T21:41:55.786Z,54.93
2018-10-17T21:46:59.147Z,55.18
2018-10-17T21:52:02.478Z,55.21
2018-10-17T21:57:05.808Z,55.85
2018-10-17T22:02:09.250Z,55.32
2018-10-17T22:07:12.519Z,55.37
2018-10-17T22:12:15.846Z,55.53
2018-10-17T22:17:21.110Z,57.51
2018-10-17T22:22:24.454Z,57.32
2018-10-17T22:27:28.547Z,57.66
2018-10-17T22:32:31.882Z,58.08
2018-10-17T22:37:35.217Z,56.85
2018-10-17T22:42:39.307Z,56.61
2018-10-17T22:47:42.650Z,56.92
2018-10-17T22:52:45.996Z,56.63
2018-10-17T22:57:49.343Z,56.57
2018-10-17T23:02:53.035Z,56.10
2018-10-17T23:08:22.211Z,55.96
2018-10-17T23:13:26.319Z,55.98
